createdAt,value
2018-11-13T00:01:33.519Z,71.90
2018-11-13T00:06:31.555Z,66.63
2018-11-13T00:11:28.980Z,68.67
2018-11-13T00:16:28.370Z,67.63
2018-11-13T00:21:25.739Z,68.13
2018-11-13T00:26:23.157Z,71.90
2018-11-13T00:31:20.526Z,84.27
2018-11-13T00:36:17.926Z,88.40
2018-11-13T00:41:15.325Z,73.10
2018-11-13T00:46:18.993Z,73.27
2018-11-13T00:51:16.427Z,70.23
2018-11-13T00:56:13.967Z,75.83
2018-11-13T01:01:11.407Z,64.43
2018-11-13T01:06:08.775Z,74.43
2018-11-13T01:11:06.142Z,62.60
2018-11-13T01:16:08.528Z,80.53
2018-11-13T01:21:06.054Z,65.03
2018-11-13T01:26:03.527Z,71.63
2018-11-13T01:31:00.891Z,72.17
2018-11-13T01:35:58.242Z,79.03
2018-11-13T01:40:55.630Z,99.17
2018-11-13T01:46:05.024Z,73.80
2018-11-13T01:51:02.443Z,80.37
2018-11-13T01:55:59.794Z,88.43
2018-11-13T02:00:57.160Z,79.67
2018-11-13T02:05:54.522Z,89.43
2018-11-13T02:10:51.878Z,90.50
2018-11-13T02:15:56.032Z,89.60
2018-11-13T02:20:53.546Z,91.67
2018-11-13T02:25:50.892Z,77.73
2018-11-13T02:30:48.245Z,89.03
2018-11-13T02:35:45.622Z,86.23
2018-11-13T02:40:43.075Z,85.67
2018-11-13T02:45:42.350Z,72.00
2018-11-13T02:50:39.806Z,100.87
2018-11-13T02:55:37.165Z,82.20
2018-11-13T03:00:34.539Z,73.77
2018-11-13T03:05:31.931Z,91.03
2018-11-13T03:10:29.300Z,86.33
2018-11-13T03:15:26.674Z,86.10
2018-11-13T03:20:24.076Z,79.60
2018-11-13T03:25:22.098Z,78.40
2018-11-13T03:30:24.547Z,84.83
2018-11-13T03:35:21.925Z,75.33
2018-11-13T03:40:19.382Z,77.40
2018-11-13T03:45:17.251Z,97.33
2018-11-13T03:50:15.839Z,74.10
2018-11-13T03:55:13.839Z,91.93
2018-11-13T04:00:13.150Z,80.27
2018-11-13T04:05:15.675Z,78.70
2018-11-13T04:10:14.129Z,183.77
2018-11-13T04:15:12.995Z,69.03
2018-11-13T04:20:12.260Z,76.43
2018-11-13T04:25:09.730Z,61.57
2018-11-13T04:30:09.560Z,81.77
2018-11-13T04:35:08.130Z,83.90
2018-11-13T04:40:08.938Z,87.93
2018-11-13T04:45:07.999Z,86.40
2018-11-13T04:50:06.812Z,87.00
2018-11-13T04:55:04.606Z,82.13
2018-11-13T05:00:02.096Z,79.07
2018-11-13T05:04:59.454Z,83.90
2018-11-13T05:09:56.831Z,74.23
2018-11-13T05:14:54.258Z,69.90
2018-11-13T05:19:52.164Z,81.70
2018-11-13T05:24:49.560Z,82.43
2018-11-13T05:29:46.916Z,73.03
2018-11-13T05:34:44.401Z,82.40
2018-11-13T05:39:41.795Z,72.10
2018-11-13T05:44:39.155Z,92.07
2018-11-13T05:49:36.517Z,80.53
2018-11-13T05:54:33.899Z,72.33
2018-11-13T05:59:31.335Z,69.07
2018-11-13T06:04:28.746Z,68.87
2018-11-13T06:09:26.136Z,75.13
2018-11-13T06:14:23.534Z,74.90
2018-11-13T06:19:20.955Z,77.63
2018-11-13T06:24:18.831Z,62.43
2018-11-13T06:29:16.216Z,65.97
2018-11-13T06:34:13.626Z,65.23
2018-11-13T06:39:12.863Z,63.97
2018-11-13T06:44:10.303Z,63.63
2018-11-13T06:49:07.768Z,60.00
2018-11-13T06:54:16.447Z,57.67
2018-11-13T06:59:13.841Z,54.77
2018-11-13T07:04:11.253Z,59.50
2018-11-13T07:09:09.220Z,60.37
2018-11-13T07:14:06.626Z,43.10
2018-11-13T07:19:04.563Z,51.53
2018-11-13T07:24:01.991Z,45.40
2018-11-13T07:29:00.019Z,45.90
2018-11-13T07:33:57.426Z,47.43
2018-11-13T07:38:54.823Z,44.10
2018-11-13T07:43:52.296Z,36.80
2018-11-13T07:48:49.776Z,37.00
2018-11-13T07:53:47.256Z,29.60
2018-11-13T07:58:44.714Z,38.10
2018-11-13T08:03:42.182Z,35.63
2018-11-13T08:08:39.561Z,29.43
2018-11-13T08:13:37.133Z,29.83
2018-11-13T08:18:34.436Z,26.40
2018-11-13T08:23:31.923Z,25.00
2018-11-13T08:28:29.364Z,25.20
2018-11-13T08:33:26.803Z,24.87
2018-11-13T08:38:24.247Z,16.27
2018-11-13T08:43:21.685Z,16.87
2018-11-13T08:48:19.169Z,16.93
2018-11-13T08:53:16.591Z,14.80
2018-11-13T08:58:13.979Z,14.30
2018-11-13T09:03:11.509Z,6.40
2018-11-13T09:08:09.784Z,6.70
2018-11-13T09:13:07.193Z,8.83
2018-11-13T09:18:05.002Z,11.13
2018-11-13T09:23:02.458Z,8.53
2018-11-13T09:27:59.842Z,7.23
2018-11-13T09:32:57.299Z,3.23
2018-11-13T09:37:54.708Z,8.27
2018-11-13T09:42:52.178Z,11.43
2018-11-13T09:47:49.645Z,6.17
2018-11-13T09:52:48.068Z,3.60
2018-11-13T09:57:45.482Z,10.33
2018-11-13T10:02:46.871Z,8.13
2018-11-13T10:07:44.137Z,3.93
2018-11-13T10:12:41.560Z,8.93
2018-11-13T10:17:39.173Z,6.37
2018-11-13T10:22:36.540Z,7.33
2018-11-13T10:27:34.003Z,8.33
2018-11-13T10:32:31.444Z,10.50
2018-11-13T10:37:28.867Z,9.60
2018-11-13T10:42:26.317Z,7.20
2018-11-13T10:47:23.737Z,9.90
2018-11-13T10:52:21.166Z,8.27
2018-11-13T10:57:18.586Z,4.90
2018-11-13T11:02:21.682Z,6.43
2018-11-13T11:07:19.175Z,4.73
2018-11-13T11:12:16.586Z,13.10
2018-11-13T11:17:13.999Z,5.73
2018-11-13T11:22:11.396Z,6.73
2018-11-13T11:27:08.807Z,9.80
2018-11-13T11:32:06.282Z,5.53
2018-11-13T11:37:03.895Z,29.43
2018-11-13T11:42:01.336Z,9.20
2018-11-13T11:46:58.741Z,2.80
2018-11-13T11:51:56.182Z,5.73
2018-11-13T11:56:53.590Z,16.20
2018-11-13T12:01:51.020Z,9.67
2018-11-13T12:06:48.434Z,8.20
2018-11-13T12:11:45.829Z,9.13
2018-11-13T12:16:43.239Z,2.60
2018-11-13T12:21:40.631Z,3.43
2018-11-13T12:26:38.022Z,5.80
2018-11-13T12:31:35.429Z,4.53
2018-11-13T12:36:32.936Z,5.10
2018-11-13T12:41:30.343Z,5.07
2018-11-13T12:46:27.768Z,4.37
2018-11-13T12:51:30.800Z,6.33
2018-11-13T12:56:28.406Z,4.93
2018-11-13T13:01:25.722Z,5.30
2018-11-13T13:06:23.175Z,13.03
2018-11-13T13:11:20.590Z,12.27
2018-11-13T13:16:17.978Z,5.40
2018-11-13T13:21:15.399Z,3.70
2018-11-13T13:26:12.804Z,11.33
2018-11-13T13:31:10.328Z,3.63
2018-11-13T13:36:07.734Z,11.10
2018-11-13T13:41:05.606Z,6.53
2018-11-13T13:46:03.039Z,5.33
2018-11-13T13:51:00.423Z,4.90
2018-11-13T13:55:57.910Z,1.33
2018-11-13T14:00:56.197Z,4.40
2018-11-13T14:05:57.282Z,4.20
2018-11-13T14:10:54.763Z,4.20
2018-11-13T14:15:52.170Z,6.93
2018-11-13T14:20:49.677Z,12.13
2018-11-13T14:25:47.106Z,4.50
2018-11-13T14:30:44.587Z,3.73
2018-11-13T14:35:47.190Z,1.97
2018-11-13T14:40:45.884Z,4.87
2018-11-13T14:45:43.657Z,8.20
2018-11-13T14:50:41.490Z,7.73
2018-11-13T14:55:40.678Z,3.57
2018-11-13T15:00:38.578Z,3.43
2018-11-13T15:05:40.639Z,5.90
2018-11-13T15:10:51.461Z,5.80
2018-11-13T15:15:48.889Z,3.10
2018-11-13T15:20:46.995Z,5.13
2018-11-13T15:25:44.418Z,7.77
2018-11-13T15:30:43.322Z,7.20
2018-11-13T15:35:40.742Z,3.00
2018-11-13T15:40:38.189Z,5.10
2018-11-13T15:45:35.612Z,14.97
2018-11-13T15:50:33.967Z,5.17
2018-11-13T15:55:31.384Z,5.73
2018-11-13T16:00:33.241Z,2.03
2018-11-13T16:05:32.175Z,7.10
2018-11-13T16:10:29.583Z,6.00
2018-11-13T16:15:27.553Z,10.00
2018-11-13T16:20:25.350Z,9.53
2018-11-13T16:25:22.799Z,3.10
2018-11-13T16:30:21.558Z,3.23
2018-11-13T16:35:21.036Z,15.03
2018-11-13T16:40:26.139Z,10.33
2018-11-13T16:45:24.294Z,4.00
2018-11-13T16:50:22.835Z,3.63
2018-11-13T16:55:25.894Z,9.37
2018-11-13T17:00:23.689Z,5.47
2018-11-13T17:05:38.899Z,6.00
2018-11-13T17:10:39.273Z,8.67
2018-11-13T17:15:36.731Z,3.87
2018-11-13T17:20:34.139Z,2.57
2018-11-13T17:25:33.007Z,8.33
2018-11-13T17:30:31.751Z,12.37
2018-11-13T17:35:38.587Z,9.03
2018-11-13T17:40:36.798Z,7.57
2018-11-13T17:45:36.536Z,6.70
2018-11-13T17:50:35.206Z,8.50
2018-11-13T17:55:32.600Z,3.43
2018-11-13T18:00:31.674Z,10.20
2018-11-13T18:05:36.397Z,9.60
2018-11-13T18:10:34.927Z,9.87
2018-11-13T18:15:32.350Z,10.43
2018-11-13T18:20:31.900Z,11.47
2018-11-13T18:25:29.596Z,3.73
2018-11-13T18:30:31.075Z,8.97
2018-11-13T18:35:30.520Z,9.23
2018-11-13T18:40:28.342Z,10.13
2018-11-13T18:45:28.185Z,6.70
2018-11-13T18:50:28.668Z,13.30
2018-11-13T18:55:26.154Z,13.10
2018-11-13T19:00:32.532Z,10.67
2018-11-13T19:05:29.919Z,13.20
2018-11-13T19:10:34.329Z,8.47
2018-11-13T19:15:33.638Z,6.30
2018-11-13T19:20:31.191Z,13.87
2018-11-13T19:25:29.955Z,7.50
2018-11-13T19:30:27.373Z,7.43
2018-11-13T19:35:24.957Z,14.10
2018-11-13T19:40:24.559Z,11.43
2018-11-13T19:45:22.118Z,13.47
2018-11-13T19:50:28.345Z,14.33
2018-11-13T19:55:26.362Z,13.03
2018-11-13T20:00:27.952Z,7.57
2018-11-13T20:05:27.263Z,12.93
2018-11-13T20:10:25.899Z,16.63
2018-11-13T20:15:27.368Z,12.33
2018-11-13T20:20:30.202Z,12.00
2018-11-13T20:25:33.232Z,11.53
2018-11-13T20:30:34.301Z,6.47
2018-11-13T20:35:31.699Z,12.90
2018-11-13T20:40:31.502Z,10.73
2018-11-13T20:45:29.264Z,13.10
2018-11-13T20:50:27.973Z,10.53
2018-11-13T20:55:25.557Z,9.10
2018-11-13T21:00:28.557Z,17.30
2018-11-13T21:05:27.011Z,15.63
2018-11-13T21:10:30.131Z,15.27
2018-11-13T21:15:30.450Z,10.90
2018-11-13T21:20:27.842Z,14.93
2018-11-13T21:25:26.003Z,12.77
2018-11-13T21:30:23.589Z,28.13
2018-11-13T21:35:22.296Z,17.83
2018-11-13T21:40:23.416Z,22.70
2018-11-13T21:45:21.935Z,24.10
2018-11-13T21:50:20.972Z,13.60
2018-11-13T21:55:20.556Z,19.63
2018-11-13T22:00:30.451Z,24.03
2018-11-13T22:05:29.841Z,16.57
2018-11-13T22:10:27.243Z,15.60
2018-11-13T22:15:25.807Z,9.03
2018-11-13T22:20:23.707Z,19.63
2018-11-13T22:25:22.635Z,31.13
2018-11-13T22:30:21.299Z,17.13
2018-11-13T22:35:21.033Z,21.93
2018-11-13T22:40:21.663Z,20.67
2018-11-13T22:45:20.466Z,18.90
2018-11-13T22:50:20.799Z,21.50
2018-11-13T22:55:20.198Z,19.27
2018-11-13T23:00:23.019Z,16.53
2018-11-13T23:05:21.765Z,21.90
2018-11-13T23:10:19.224Z,18.33
2018-11-13T23:15:18.281Z,24.87
2018-11-13T23:20:16.996Z,20.20
2018-11-13T23:25:15.590Z,24.97
2018-11-13T23:30:15.379Z,17.83
2018-11-13T23:35:14.366Z,20.83
2018-11-13T23:40:13.272Z,25.50
2018-11-13T23:45:11.353Z,16.03
2018-11-13T23:50:09.077Z,14.57
2018-11-13T23:55:07.981Z,20.73
